createdAt,value
2014-10-19T00:00:06.643Z,101474
2014-10-19T00:00:35.020Z,101471
2014-10-19T00:01:03.395Z,101474
2014-10-19T00:01:31.773Z,101477
2014-10-19T00:02:00.148Z,101477
2014-10-19T00:02:28.523Z,101471
2014-10-19T00:02:56.900Z,101468
2014-10-19T00:03:25.275Z,101471
2014-10-19T00:03:53.667Z,101480
2014-10-19T00:04:22.042Z,101474
2014-10-19T00:04:50.420Z,101474
2014-10-19T00:05:18.795Z,101480
2014-10-19T00:05:47.170Z,101474
2014-10-19T00:06:15.547Z,101466
2014-10-19T00:06:43.922Z,101471
2014-10-19T00:07:12.300Z,101477
2014-10-19T00:07:40.675Z,101474
2014-10-19T00:08:09.053Z,101474
2014-10-19T00:08:37.428Z,101488
2014-10-19T00:09:05.803Z,101468
2014-10-19T00:09:34.180Z,101474
2014-10-19T00:10:02.555Z,101471
2014-10-19T00:10:30.949Z,101471
2014-10-19T00:10:59.324Z,101471
2014-10-19T00:11:27.702Z,101471
2014-10-19T00:11:56.077Z,101471
2014-10-19T00:12:24.452Z,101463
2014-10-19T00:12:52.829Z,101468
2014-10-19T00:13:21.204Z,101468
2014-10-19T00:13:49.582Z,101465
2014-10-19T00:14:17.957Z,101468
2014-10-19T00:14:46.350Z,101468
2014-10-19T00:15:14.725Z,101457
2014-10-19T00:15:43.100Z,101465
2014-10-19T00:16:11.477Z,101468
2014-10-19T00:16:39.852Z,101471
2014-10-19T00:17:08.229Z,101457
2014-10-19T00:17:36.604Z,101471
2014-10-19T00:18:04.998Z,101465
2014-10-19T00:18:33.357Z,101468
2014-10-19T00:19:01.748Z,101457
2014-10-19T00:19:30.126Z,101468
2014-10-19T00:19:58.501Z,101462
2014-10-19T00:20:26.878Z,101471
2014-10-19T00:20:55.253Z,101468
2014-10-19T00:21:23.630Z,101468
2014-10-19T00:21:52.005Z,101454
2014-10-19T00:22:20.380Z,101468
2014-10-19T00:22:48.758Z,101451
2014-10-19T00:23:17.133Z,101454
2014-10-19T00:23:45.510Z,101462
2014-10-19T00:24:13.885Z,101460
2014-10-19T00:24:42.263Z,101454
2014-10-19T00:25:10.638Z,101454
2014-10-19T00:25:39.029Z,101448
2014-10-19T00:26:07.407Z,101451
2014-10-19T00:26:35.782Z,101454
2014-10-19T00:27:04.159Z,101454
2014-10-19T00:27:32.534Z,101454
2014-10-19T00:28:00.912Z,101442
2014-10-19T00:28:29.287Z,101457
2014-10-19T00:28:57.662Z,101451
2014-10-19T00:29:26.039Z,101457
2014-10-19T00:29:54.414Z,101451
2014-10-19T00:30:22.792Z,101454
2014-10-19T00:30:51.182Z,101445
2014-10-19T00:31:19.560Z,101445
2014-10-19T00:31:47.935Z,101451
2014-10-19T00:32:16.310Z,101451
2014-10-19T00:32:44.687Z,101457
2014-10-19T00:33:13.062Z,101454
2014-10-19T00:33:41.439Z,101448
2014-10-19T00:34:09.814Z,101457
2014-10-19T00:34:38.192Z,101448
2014-10-19T00:35:06.567Z,101457
2014-10-19T00:35:34.958Z,101459
2014-10-19T00:36:03.336Z,101454
2014-10-19T00:36:31.711Z,101457
2014-10-19T00:37:00.087Z,101462
2014-10-19T00:37:28.462Z,101451
2014-10-19T00:37:56.840Z,101462
2014-10-19T00:38:25.215Z,101465
2014-10-19T00:38:53.606Z,101457
2014-10-19T00:39:21.984Z,101451
2014-10-19T00:39:50.359Z,101459
2014-10-19T00:40:18.737Z,101462
2014-10-19T00:40:47.112Z,101454
2014-10-19T00:41:15.490Z,101454
2014-10-19T00:41:43.865Z,101454
2014-10-19T00:42:12.240Z,101451
2014-10-19T00:42:40.617Z,101459
2014-10-19T00:43:08.992Z,101448
2014-10-19T00:43:37.369Z,101445
2014-10-19T00:44:05.744Z,101436
2014-10-19T00:44:34.122Z,101442
2014-10-19T00:45:02.497Z,101436
2014-10-19T00:45:30.872Z,101439
2014-10-19T00:45:59.249Z,101442
2014-10-19T00:46:27.624Z,101439
2014-10-19T00:46:55.986Z,101439
2014-10-19T00:47:24.377Z,101436
2014-10-19T00:47:52.755Z,101439
2014-10-19T00:48:21.130Z,101428
2014-10-19T00:48:49.505Z,101436
2014-10-19T00:49:17.882Z,101431
2014-10-19T00:49:46.257Z,101431
2014-10-19T00:50:14.635Z,101442
2014-10-19T00:50:43.010Z,101436
2014-10-19T00:51:11.388Z,101439
2014-10-19T00:51:39.763Z,101425
2014-10-19T00:52:08.153Z,101439
2014-10-19T00:52:36.515Z,101436
2014-10-19T00:53:04.890Z,101436
2014-10-19T00:53:33.251Z,101436
2014-10-19T00:54:01.642Z,101442
2014-10-19T00:54:30.020Z,101436
2014-10-19T00:54:58.395Z,101436
2014-10-19T00:55:26.770Z,101433
2014-10-19T00:55:55.147Z,101445
2014-10-19T00:56:23.522Z,101445
2014-10-19T00:56:51.900Z,101445
2014-10-19T00:57:20.118Z,101433
2014-10-19T00:57:48.511Z,101428
2014-10-19T00:58:16.886Z,101433
2014-10-19T00:58:45.261Z,101445
2014-10-19T00:59:13.639Z,101448
2014-10-19T00:59:42.014Z,101442
2014-10-19T01:00:10.407Z,101445
2014-10-19T01:00:38.766Z,101442
2014-10-19T01:01:07.144Z,101442
2014-10-19T01:01:35.519Z,101442
2014-10-19T01:02:03.894Z,101442
2014-10-19T01:02:32.272Z,101445
2014-10-19T01:03:00.663Z,101445
2014-10-19T01:03:29.040Z,101450
2014-10-19T01:03:57.415Z,101450
2014-10-19T01:04:25.777Z,101453
2014-10-19T01:04:54.168Z,101453
2014-10-19T01:05:22.543Z,101450
2014-10-19T01:05:50.920Z,101456
2014-10-19T01:06:19.295Z,101453
2014-10-19T01:06:47.673Z,101448
2014-10-19T01:07:16.048Z,101448
2014-10-19T01:07:44.426Z,101448
2014-10-19T01:08:12.801Z,101445
2014-10-19T01:08:41.176Z,101445
2014-10-19T01:09:09.553Z,101445
2014-10-19T01:09:37.928Z,101439
2014-10-19T01:10:06.305Z,101442
2014-10-19T01:10:34.680Z,101453
2014-10-19T01:11:03.058Z,101436
2014-10-19T01:11:31.433Z,101436
2014-10-19T01:11:59.808Z,101439
2014-10-19T01:12:28.185Z,101439
2014-10-19T01:12:56.560Z,101439
2014-10-19T01:13:24.938Z,101439
2014-10-19T01:13:53.313Z,101445
2014-10-19T01:14:21.691Z,101436
2014-10-19T01:14:50.066Z,101453
2014-10-19T01:15:18.441Z,101450
2014-10-19T01:15:46.818Z,101447
2014-10-19T01:16:15.193Z,101439
2014-10-19T01:16:43.585Z,101445
2014-10-19T01:17:11.960Z,101447
2014-10-19T01:17:40.338Z,101447
2014-10-19T01:18:08.713Z,101445
2014-10-19T01:18:37.088Z,101444
2014-10-19T01:19:05.465Z,101447
2014-10-19T01:19:33.840Z,101447
2014-10-19T01:20:02.218Z,101439
2014-10-19T01:20:30.593Z,101442
2014-10-19T01:20:58.971Z,101444
2014-10-19T01:21:27.346Z,101442
2014-10-19T01:21:55.721Z,101445
2014-10-19T01:22:24.098Z,101442
2014-10-19T01:22:52.473Z,101442
2014-10-19T01:23:20.851Z,101436
2014-10-19T01:23:49.226Z,101439
2014-10-19T01:24:17.603Z,101439
2014-10-19T01:24:45.978Z,101442
2014-10-19T01:25:14.353Z,101439
2014-10-19T01:25:42.731Z,101430
2014-10-19T01:26:11.122Z,101433
2014-10-19T01:26:39.484Z,101433
2014-10-19T01:27:07.859Z,101433
2014-10-19T01:27:36.237Z,101433
2014-10-19T01:28:04.612Z,101433
2014-10-19T01:28:32.987Z,101424
2014-10-19T01:29:01.363Z,101427
2014-10-19T01:29:29.754Z,101427
2014-10-19T01:29:58.116Z,101436
2014-10-19T01:30:26.491Z,101421
2014-10-19T01:30:54.869Z,101436
2014-10-19T01:31:23.244Z,101427
2014-10-19T01:31:51.619Z,101430
2014-10-19T01:32:19.996Z,101430
2014-10-19T01:32:48.371Z,101430
2014-10-19T01:33:16.749Z,101433
2014-10-19T01:33:45.124Z,101421
2014-10-19T01:34:13.502Z,101421
2014-10-19T01:34:41.877Z,101439
2014-10-19T01:35:10.252Z,101430
2014-10-19T01:35:38.644Z,101424
2014-10-19T01:36:07.019Z,101430
2014-10-19T01:36:35.397Z,101433
2014-10-19T01:37:03.772Z,101421
2014-10-19T01:37:32.150Z,101419
2014-10-19T01:38:00.525Z,101421
2014-10-19T01:38:28.900Z,101413
2014-10-19T01:38:57.278Z,101421
2014-10-19T01:39:25.668Z,101419
2014-10-19T01:39:54.045Z,101416
2014-10-19T01:40:22.420Z,101416
2014-10-19T01:40:50.798Z,101404
2014-10-19T01:41:19.173Z,101410
2014-10-19T01:41:47.548Z,101413
2014-10-19T01:42:15.925Z,101401
2014-10-19T01:42:44.300Z,101401
2014-10-19T01:43:12.677Z,101413
2014-10-19T01:43:41.052Z,101404
2014-10-19T01:44:09.430Z,101418
2014-10-19T01:44:37.805Z,101404
2014-10-19T01:45:06.180Z,101407
2014-10-19T01:45:34.558Z,101407
2014-10-19T01:46:02.933Z,101407
2014-10-19T01:46:31.310Z,101410
2014-10-19T01:46:59.685Z,101410
2014-10-19T01:47:28.063Z,101413
2014-10-19T01:47:56.438Z,101410
2014-10-19T01:48:24.813Z,101407
2014-10-19T01:48:53.190Z,101410
2014-10-19T01:49:21.565Z,101404
2014-10-19T01:49:49.943Z,101407
2014-10-19T01:50:18.318Z,101407
2014-10-19T01:50:46.696Z,101407
2014-10-19T01:51:15.071Z,101401
2014-10-19T01:51:43.446Z,101410
2014-10-19T01:52:11.823Z,101404
2014-10-19T01:52:40.214Z,101393
2014-10-19T01:53:08.591Z,101410
2014-10-19T01:53:36.966Z,101404
2014-10-19T01:54:05.344Z,101416
2014-10-19T01:54:33.719Z,101404
2014-10-19T01:55:02.094Z,101410
2014-10-19T01:55:30.472Z,101404
2014-10-19T01:55:58.847Z,101398
2014-10-19T01:56:27.224Z,101398
2014-10-19T01:56:55.599Z,101398
2014-10-19T01:57:23.977Z,101390
2014-10-19T01:57:52.352Z,101387
2014-10-19T01:58:20.727Z,101398
2014-10-19T01:58:49.105Z,101396
2014-10-19T01:59:17.480Z,101393
2014-10-19T01:59:45.856Z,101393
2014-10-19T02:00:14.231Z,101390
2014-10-19T02:00:42.609Z,101390
2014-10-19T02:01:10.984Z,101396
2014-10-19T02:01:39.375Z,101387
2014-10-19T02:02:07.753Z,101393
2014-10-19T02:02:36.128Z,101393
2014-10-19T02:03:04.506Z,101384
2014-10-19T02:03:32.881Z,101387
2014-10-19T02:04:01.258Z,101375
2014-10-19T02:04:29.633Z,101387
2014-10-19T02:04:58.023Z,101387
2014-10-19T02:05:26.400Z,101384
2014-10-19T02:05:54.775Z,101375
2014-10-19T02:06:23.153Z,101387
2014-10-19T02:06:51.528Z,101390
2014-10-19T02:07:19.909Z,101393
2014-10-19T02:07:48.284Z,101387
2014-10-19T02:08:16.659Z,101390
2014-10-19T02:08:45.039Z,101384
2014-10-19T02:09:13.414Z,101387
2014-10-19T02:09:41.794Z,101387
2014-10-19T02:10:10.169Z,101384
2014-10-19T02:10:38.550Z,101387
2014-10-19T02:11:06.925Z,101384
2014-10-19T02:11:35.300Z,101381
2014-10-19T02:12:03.679Z,101381
2014-10-19T02:12:32.054Z,101387
2014-10-19T02:13:00.433Z,101381
2014-10-19T02:13:28.808Z,101387
2014-10-19T02:13:57.187Z,101375
2014-10-19T02:14:25.562Z,101375
2014-10-19T02:14:53.937Z,101390
2014-10-19T02:15:22.314Z,101387
2014-10-19T02:15:50.689Z,101378
2014-10-19T02:16:18.911Z,101381
2014-10-19T02:16:47.286Z,101381
2014-10-19T02:17:15.666Z,101387
2014-10-19T02:17:44.041Z,101381
2014-10-19T02:18:12.432Z,101381
2014-10-19T02:18:40.809Z,101378
2014-10-19T02:19:09.184Z,101381
2014-10-19T02:19:37.562Z,101387
2014-10-19T02:20:05.937Z,101381
2014-10-19T02:20:34.316Z,101372
2014-10-19T02:21:02.691Z,101387
2014-10-19T02:21:31.066Z,101381
2014-10-19T02:21:59.443Z,101378
2014-10-19T02:22:27.818Z,101387
2014-10-19T02:22:56.210Z,101387
2014-10-19T02:23:24.585Z,101381
2014-10-19T02:23:52.948Z,101387
2014-10-19T02:24:21.338Z,101390
2014-10-19T02:24:49.713Z,101384
2014-10-19T02:25:18.090Z,101390
2014-10-19T02:25:46.465Z,101392
2014-10-19T02:26:14.843Z,101378
2014-10-19T02:26:43.218Z,101381
2014-10-19T02:27:11.596Z,101384
2014-10-19T02:27:39.971Z,101375
2014-10-19T02:28:08.346Z,101387
2014-10-19T02:28:36.723Z,101375
2014-10-19T02:29:05.098Z,101372
2014-10-19T02:29:33.475Z,101381
2014-10-19T02:30:01.850Z,101384
2014-10-19T02:30:30.228Z,101372
2014-10-19T02:30:58.603Z,101384
2014-10-19T02:31:26.978Z,101375
2014-10-19T02:31:55.355Z,101384
2014-10-19T02:32:23.730Z,101378
2014-10-19T02:32:52.108Z,101375
2014-10-19T02:33:20.483Z,101384
2014-10-19T02:33:48.861Z,101378
2014-10-19T02:34:17.236Z,101378
2014-10-19T02:34:45.611Z,101372
2014-10-19T02:35:13.988Z,101378
2014-10-19T02:35:42.363Z,101375
2014-10-19T02:36:10.757Z,101381
2014-10-19T02:36:39.116Z,101384
2014-10-19T02:37:07.494Z,101384
2014-10-19T02:37:35.869Z,101389
2014-10-19T02:38:04.244Z,101375
2014-10-19T02:38:32.621Z,101375
2014-10-19T02:39:00.996Z,101384
2014-10-19T02:39:29.373Z,101378
2014-10-19T02:39:57.748Z,101372
2014-10-19T02:40:26.126Z,101372
2014-10-19T02:40:54.501Z,101372
2014-10-19T02:41:22.876Z,101372
2014-10-19T02:41:51.253Z,101367
2014-10-19T02:42:19.628Z,101375
2014-10-19T02:42:48.022Z,101375
2014-10-19T02:43:16.381Z,101369
2014-10-19T07:39:48.316Z,101176
2014-10-19T07:40:16.707Z,101173
2014-10-19T07:40:45.082Z,101173
2014-10-19T07:41:13.460Z,101167
2014-10-19T07:41:41.851Z,101163
2014-10-19T07:42:10.228Z,101167
2014-10-19T07:42:38.603Z,101164
2014-10-19T07:43:06.981Z,101164
2014-10-19T07:43:35.356Z,101167
2014-10-19T07:44:03.746Z,101167
2014-10-19T07:44:32.123Z,101170
2014-10-19T07:45:00.498Z,101167
2014-10-19T07:45:28.876Z,101173
2014-10-19T07:45:57.251Z,101157
2014-10-19T07:46:25.645Z,101167
2014-10-19T07:46:54.020Z,101167
2014-10-19T07:47:22.395Z,101163
2014-10-19T07:47:50.772Z,101167
2014-10-19T07:48:19.147Z,101163
2014-10-19T07:48:47.524Z,101157
2014-10-19T07:49:15.914Z,101163
2014-10-19T07:49:44.292Z,101167
2014-10-19T07:50:12.667Z,101163
2014-10-19T07:50:41.058Z,101173
2014-10-19T07:51:09.436Z,101163
2014-10-19T07:51:37.811Z,101163
2014-10-19T07:52:06.188Z,101163
2014-10-19T07:52:34.579Z,101167
2014-10-19T07:53:02.957Z,101163
2014-10-19T07:53:31.347Z,101164
2014-10-19T07:53:59.722Z,101167
2014-10-19T07:54:28.099Z,101167
2014-10-19T07:54:56.474Z,101167
2014-10-19T07:55:24.867Z,101164
2014-10-19T07:55:53.242Z,101167
2014-10-19T07:56:21.620Z,101157
2014-10-19T07:56:49.995Z,101157
2014-10-19T07:57:18.386Z,101157
2014-10-19T07:57:46.763Z,101157
2014-10-19T07:58:15.138Z,101157
2014-10-19T07:58:43.516Z,101145
2014-10-19T07:59:11.906Z,101151
2014-10-19T07:59:40.284Z,101151
2014-10-19T08:00:08.659Z,101151
2014-10-19T08:00:37.034Z,101145
2014-10-19T08:01:05.411Z,101157
2014-10-19T08:01:33.802Z,101154
2014-10-19T08:02:02.179Z,101140
2014-10-19T08:02:30.554Z,101145
2014-10-19T08:55:21.521Z,101080
2014-10-19T08:55:49.911Z,101086
2014-10-19T08:56:18.305Z,101086
2014-10-19T08:56:46.711Z,101086
2014-10-19T08:57:15.105Z,101072
2014-10-19T08:57:43.511Z,101078
2014-10-19T08:58:11.902Z,101080
2014-10-19T08:58:40.310Z,101083
2014-10-19T08:59:08.700Z,101080
2014-10-19T08:59:37.109Z,101081
2014-10-19T09:00:05.499Z,101069
2014-10-19T09:00:33.909Z,101066
2014-10-19T09:01:02.299Z,101075
2014-10-19T09:01:30.705Z,101072
2014-10-19T09:01:59.114Z,101084
2014-10-19T09:02:27.504Z,101069
2014-10-19T09:02:55.913Z,101064
2014-10-19T09:03:24.303Z,101075
2014-10-19T09:03:52.713Z,101069
2014-10-19T09:04:21.120Z,101066
2014-10-19T09:04:49.510Z,101064
2014-10-19T09:05:17.919Z,101069
2014-10-19T09:05:46.309Z,101064
2014-10-19T09:06:14.717Z,101069
2014-10-19T09:06:43.124Z,101069
2014-10-19T09:07:11.517Z,101064
2014-10-19T09:07:39.924Z,101081
2014-10-19T09:08:08.314Z,101075
2014-10-19T09:08:36.723Z,101081
2014-10-19T09:09:05.130Z,101069
2014-10-19T09:09:33.522Z,101075
2014-10-19T09:10:01.929Z,101078
2014-10-19T09:10:30.322Z,101078
2014-10-19T09:10:58.728Z,101069
2014-10-19T09:11:27.135Z,101078
2014-10-19T09:11:55.527Z,101075
2014-10-19T09:12:23.934Z,101075
2014-10-19T09:12:52.326Z,101078
2014-10-19T09:13:20.732Z,101087
2014-10-19T09:13:49.127Z,101081
2014-10-19T09:14:17.533Z,101090
2014-10-19T09:14:45.940Z,101078
2014-10-19T09:15:14.332Z,101084
2014-10-19T09:15:42.738Z,101072
2014-10-19T09:16:11.147Z,101078
2014-10-19T09:16:39.537Z,101078
2014-10-19T09:17:07.947Z,101067
2014-10-19T09:17:36.353Z,101078
2014-10-19T09:18:04.743Z,101067
2014-10-19T09:18:33.152Z,101061
2014-10-19T09:19:01.558Z,101078
2014-10-19T09:19:29.967Z,101072
2014-10-19T09:19:58.358Z,101072
2014-10-19T09:20:26.767Z,101075
2014-10-19T09:20:55.173Z,101078
2014-10-19T09:21:23.580Z,101067
2014-10-19T09:21:51.988Z,101061
2014-10-19T09:22:20.378Z,101064
2014-10-19T09:22:48.787Z,101058
2014-10-19T09:23:17.193Z,101049
2014-10-19T09:23:45.588Z,101052
2014-10-19T09:24:13.994Z,101072
2014-10-19T09:24:42.384Z,101049
2014-10-19T09:25:10.793Z,101058
2014-10-19T09:25:39.199Z,101052
2014-10-19T09:26:07.592Z,101064
2014-10-19T09:26:35.998Z,101058
2014-10-19T09:27:04.407Z,101064
2014-10-19T09:27:32.798Z,101058
2014-10-19T09:28:01.204Z,101058
2014-10-19T09:28:29.598Z,101061
2014-10-19T09:28:58.004Z,101064
2014-10-19T09:29:26.412Z,101058
2014-10-19T09:29:54.803Z,101058
2014-10-19T09:30:23.211Z,101050
2014-10-19T09:30:51.617Z,101061
2014-10-19T09:31:20.023Z,101052
2014-10-19T09:31:48.417Z,101055
2014-10-19T09:32:16.823Z,101055
2014-10-19T09:32:45.216Z,101052
2014-10-19T09:33:13.622Z,101055
2014-10-19T09:33:42.031Z,101055
2014-10-19T09:34:10.438Z,101055
2014-10-19T09:34:38.828Z,101052
2014-10-19T09:35:07.237Z,101064
2014-10-19T09:35:35.627Z,101055
2014-10-19T09:36:04.036Z,101047
2014-10-19T09:36:32.443Z,101047
2014-10-19T09:37:00.836Z,101061
2014-10-19T09:37:29.243Z,101049
2014-10-19T09:37:57.649Z,101052
2014-10-19T09:38:26.042Z,101047
2014-10-19T09:38:54.449Z,101047
2014-10-19T11:09:50.923Z,100951
2014-10-19T11:10:19.333Z,100951
2014-10-19T11:10:47.723Z,100949
2014-10-19T11:11:16.114Z,100949
2014-10-19T11:11:44.522Z,100960
2014-10-19T11:12:12.913Z,100946
2014-10-19T11:12:41.323Z,100951
2014-10-19T11:13:09.729Z,100946
2014-10-19T11:13:38.155Z,100960
2014-10-19T11:14:06.561Z,100943
2014-10-19T11:14:34.967Z,100946
2014-10-19T11:15:03.400Z,100946
2014-10-19T11:15:31.790Z,100946
2014-10-19T11:16:00.224Z,100940
2014-10-19T11:16:28.615Z,100948
2014-10-19T11:16:57.054Z,100948
2014-10-19T11:17:25.445Z,100943
2014-10-19T11:17:53.851Z,100951
2014-10-19T11:18:22.414Z,100948
2014-10-19T11:18:50.664Z,100937
2014-10-19T11:19:19.067Z,100951
2014-10-19T11:19:47.473Z,100934
2014-10-19T11:20:15.891Z,100934
2014-10-19T11:20:44.282Z,100934
2014-10-19T11:21:12.698Z,100934
2014-10-19T11:21:41.089Z,100937
2014-10-19T11:22:09.507Z,100937
2014-10-19T11:22:37.913Z,100931
2014-10-19T11:23:06.326Z,100937
2014-10-19T11:58:08.209Z,100885
2014-10-19T11:58:36.631Z,100888
2014-10-19T11:59:05.101Z,100882
2014-10-19T11:59:33.492Z,100891
2014-10-19T12:00:01.898Z,100888
2014-10-19T12:00:30.307Z,100882
2014-10-19T12:00:58.698Z,100885
2014-10-19T12:01:27.092Z,100879
2014-10-19T12:01:55.482Z,100879
2014-10-19T12:02:23.889Z,100877
2014-10-19T12:02:52.297Z,100879
2014-10-19T12:03:20.687Z,100879
2014-10-19T12:03:49.096Z,100879
2014-10-19T12:04:17.486Z,100874
2014-10-19T12:04:45.897Z,100880
2014-10-19T12:05:14.303Z,100877
2014-10-19T12:05:42.693Z,100877
2014-10-19T12:06:11.102Z,100885
2014-10-19T12:06:39.492Z,100877
2014-10-19T12:07:07.901Z,100871
2014-10-19T12:07:36.291Z,100880
2014-10-19T12:08:04.716Z,100871
2014-10-19T12:08:33.091Z,100874
2014-10-19T12:09:01.513Z,100874
2014-10-19T12:09:30.000Z,100880
2014-10-19T12:09:58.391Z,100865
2014-10-19T12:10:26.799Z,100871
2014-10-19T12:10:55.190Z,100865
2014-10-19T12:11:23.599Z,100874
2014-10-19T12:11:52.005Z,100874
2014-10-19T12:12:20.396Z,100871
2014-10-19T12:12:48.804Z,100863
2014-10-19T12:13:17.210Z,100877
2014-10-19T12:13:45.604Z,100874
2014-10-19T12:14:13.995Z,100877
2014-10-19T20:03:41.201Z,100527
2014-10-19T20:04:09.594Z,100538
2014-10-19T20:04:38.001Z,100532
2014-10-19T20:05:06.393Z,100527
2014-10-19T20:05:34.815Z,100530
2014-10-19T20:06:03.209Z,100527
2014-10-19T20:06:31.615Z,100535
2014-10-19T20:07:00.006Z,100530
2014-10-19T20:07:28.398Z,100532
2014-10-19T20:07:56.804Z,100538
2014-10-19T20:08:25.214Z,100533
2014-10-19T20:08:53.620Z,100530
2014-10-19T20:16:37.123Z,100533
2014-10-19T20:19:47.976Z,100524
2014-10-19T20:20:06.195Z,100524
2014-10-19T20:20:24.398Z,100527
2014-10-19T20:20:42.634Z,100533
2014-10-19T20:21:00.853Z,100539
2014-10-19T20:21:19.072Z,100536
2014-10-19T20:21:37.308Z,100527
2014-10-19T20:21:55.511Z,100533
2014-10-19T20:22:13.730Z,100527
2014-10-19T20:22:31.933Z,100530
2014-10-19T20:22:50.170Z,100533
2014-10-19T20:23:08.389Z,100536
2014-10-19T20:23:26.608Z,100527
2014-10-19T20:23:44.841Z,100533
2014-10-19T20:24:03.044Z,100536
2014-10-19T20:24:21.263Z,100533
2014-10-19T20:24:39.491Z,100527
2014-10-19T20:24:57.710Z,100536
2014-10-19T20:25:15.928Z,100542
2014-10-19T20:25:34.147Z,100530
2014-10-19T20:25:52.358Z,100536
2014-10-19T20:26:10.577Z,100539
2014-10-19T20:26:28.796Z,100533
2014-10-19T20:26:47.023Z,100533
2014-10-19T20:27:05.241Z,100533
2014-10-19T20:27:23.444Z,100527
2014-10-19T20:27:41.671Z,100536
2014-10-19T20:27:59.890Z,100519
2014-10-19T20:28:18.109Z,100533
2014-10-19T20:28:36.334Z,100533
2014-10-19T20:28:54.553Z,100530
2014-10-19T20:29:12.756Z,100525
2014-10-19T20:29:30.975Z,100536
2014-10-19T20:29:49.198Z,100547
2014-10-19T20:30:07.417Z,100542
2014-10-19T20:30:25.635Z,100533
2014-10-19T20:30:43.858Z,100536
2014-10-19T20:31:02.077Z,100536
2014-10-19T20:31:20.280Z,100536
2014-10-19T20:31:38.504Z,100533
2014-10-19T20:31:56.894Z,100542
2014-10-19T20:32:15.113Z,100536
2014-10-19T20:32:33.332Z,100536
2014-10-19T20:32:51.555Z,100536
2014-10-19T20:33:09.773Z,100542
2014-10-19T20:33:27.992Z,100533
2014-10-19T20:33:46.216Z,100545
2014-10-19T20:34:04.435Z,100542
2014-10-19T20:34:22.653Z,100545
2014-10-19T20:34:40.872Z,100536
2014-10-19T20:34:59.094Z,100539
2014-10-19T20:35:17.297Z,100536
2014-10-19T20:35:35.516Z,100530
2014-10-19T20:35:53.753Z,100545
2014-10-19T20:36:11.956Z,100542
2014-10-19T20:36:30.175Z,100542
2014-10-19T20:36:48.394Z,100545
2014-10-19T20:37:06.615Z,100542
2014-10-19T20:37:24.850Z,100545
2014-10-19T20:37:43.069Z,100550
2014-10-19T20:38:01.291Z,100553
2014-10-19T20:38:19.510Z,100553
2014-10-19T20:38:37.729Z,100556
2014-10-19T20:38:55.932Z,100545
2014-10-19T20:39:14.153Z,100545
2014-10-19T20:39:32.371Z,100548
2014-10-19T20:39:50.606Z,100545
2014-10-19T20:40:08.829Z,100545
2014-10-19T20:40:27.063Z,100545
2014-10-19T20:40:45.282Z,100539
2014-10-19T20:41:02.860Z,100550
2014-10-19T20:41:21.082Z,100550
2014-10-19T20:41:40.238Z,100542
2014-10-19T20:41:58.472Z,100548
2014-10-19T20:42:16.693Z,100545
2014-10-19T20:42:34.896Z,100545
2014-10-19T20:42:53.115Z,100550
2014-10-19T20:43:11.334Z,100556
2014-10-19T20:43:29.588Z,100556
2014-10-19T20:43:47.806Z,100562
2014-10-19T20:44:06.009Z,100559
2014-10-19T20:44:24.230Z,100559
2014-10-19T20:44:42.449Z,100559
2014-10-19T20:45:00.668Z,100551
2014-10-19T20:45:18.886Z,100565
2014-10-19T20:45:37.092Z,100571
2014-10-19T20:45:55.310Z,100571
2014-10-19T20:46:13.529Z,100559
2014-10-19T20:46:31.751Z,100559
2014-10-19T20:46:49.970Z,100562
2014-10-19T20:47:08.204Z,100562
2014-10-19T20:47:26.409Z,100568
2014-10-19T20:47:44.612Z,100576
2014-10-19T20:48:02.831Z,100571
2014-10-19T20:48:21.050Z,100565
2014-10-19T20:48:39.270Z,100576
2014-10-19T20:48:57.489Z,100573
2014-10-19T20:49:15.708Z,100571
2014-10-19T20:49:33.930Z,100579
2014-10-19T20:49:52.148Z,100571
2014-10-19T20:50:10.367Z,100573
2014-10-19T20:50:28.588Z,100571
2014-10-19T20:50:46.791Z,100573
2014-10-19T20:51:05.010Z,100582
2014-10-19T20:51:23.231Z,100571
2014-10-19T20:51:41.449Z,100571
2014-10-19T20:51:59.668Z,100571
2014-10-19T20:52:17.902Z,100579
2014-10-19T20:52:36.109Z,100582
2014-10-19T20:52:54.374Z,100593
2014-10-19T20:53:12.593Z,100582
2014-10-19T20:53:30.814Z,100590
2014-10-19T20:53:49.032Z,100596
2014-10-19T20:54:07.251Z,100596
2014-10-19T20:54:25.472Z,100604
2014-10-19T20:54:43.675Z,100598
2014-10-19T20:55:01.894Z,100601
2014-10-19T20:55:20.128Z,100590
2014-10-19T20:55:38.333Z,100610
2014-10-19T20:55:56.552Z,100593
2014-10-19T20:56:14.755Z,100598
2014-10-19T20:56:32.977Z,100598
2014-10-19T20:56:51.196Z,100598
2014-10-19T20:57:09.414Z,100596
2014-10-19T20:57:27.635Z,100587
2014-10-19T20:57:45.854Z,100621
2014-10-19T20:58:04.073Z,100616
2014-10-19T20:58:22.293Z,100601
2014-10-19T20:58:40.512Z,100604
2014-10-19T20:58:58.731Z,100619
2014-10-19T20:59:16.934Z,100619
2014-10-19T20:59:35.155Z,100624
2014-10-19T20:59:53.374Z,100624
2014-10-19T21:00:11.592Z,100619
2014-10-19T21:00:29.813Z,100630
2014-10-19T21:00:48.032Z,100633
2014-10-19T21:01:06.235Z,100633
2014-10-19T21:01:24.454Z,100627
2014-10-19T21:01:42.675Z,100639
2014-10-19T21:02:00.879Z,100641
2014-10-19T21:02:19.097Z,100647
2014-10-19T21:02:37.318Z,100644
2014-10-19T21:02:55.537Z,100636
2014-10-19T21:03:13.756Z,100633
2014-10-19T21:03:31.974Z,100641
2014-10-19T21:03:50.196Z,100647
2014-10-19T21:04:08.415Z,100630
2014-10-19T21:04:26.634Z,100641
2014-10-19T21:04:44.870Z,100630
2014-10-19T21:05:03.089Z,100630
2014-10-19T21:05:21.292Z,100624
2014-10-19T21:05:39.544Z,100636
2014-10-19T21:05:57.747Z,100621
2014-10-19T21:06:15.966Z,100630
2014-10-19T21:06:34.184Z,100636
2014-10-19T21:06:52.405Z,100624
2014-10-19T21:07:10.624Z,100636
2014-10-19T21:07:28.843Z,100619
2014-10-19T21:07:47.064Z,100624
2014-10-19T21:08:05.268Z,100630
2014-10-19T21:08:23.486Z,100630
2014-10-19T21:08:41.707Z,100639
2014-10-19T21:08:59.926Z,100630
2014-10-19T21:09:18.145Z,100633
2014-10-19T21:09:36.193Z,100636
2014-10-19T21:09:54.412Z,100630
2014-10-19T21:10:12.678Z,100636
2014-10-19T21:10:30.865Z,100630
2014-10-19T21:10:49.071Z,100641
2014-10-19T21:11:07.290Z,100639
2014-10-19T21:11:25.509Z,100639
2014-10-19T21:11:43.730Z,100633
2014-10-19T21:12:01.948Z,100641
2014-10-19T21:12:20.152Z,100639
2014-10-19T21:12:38.373Z,100639
2014-10-19T21:12:56.623Z,100639
2014-10-19T21:13:14.826Z,100636
2014-10-19T21:13:33.045Z,100639
2014-10-19T21:13:51.266Z,100636
2014-10-19T21:14:09.485Z,100642
2014-10-19T21:14:27.703Z,100644
2014-10-19T21:14:51.988Z,100636
2014-10-19T21:15:10.206Z,100642
2014-10-19T21:15:28.425Z,100627